Time;durP1;ratioP1;P1;durP2;ratioP2;P2;SDS_P1;SDS_P2;PMS_P1;PMS_P2;Temp;Humidity;BMP_temperature;BMP_pressure;BME280_temperature;BME280_humidity;BME280_pressure;Samples;Min_cycle;Max_cycle;Signal;HPM_P1;HPM_P2
2022/01/31 00:00:10;;;;;;;9.77;1.80;;;;;;;0.78;100.00;97947.88;4418997;32;20030;-70
2022/01/31 00:02:59;;;;;;;9.20;2.40;;;;;;;0.74;100.00;97945.91;4397172;32;20395;-70
2022/01/31 00:05:26;;;;;;;11.18;2.03;;;;;;;0.90;100.00;97930.28;4421028;32;20427;-70
2022/01/31 00:07:52;;;;;;;11.48;2.83;;;;;;;0.82;100.00;97913.84;4401937;32;20069;-70
2022/01/31 00:10:27;;;;;;;9.02;1.77;;;;;;;0.96;100.00;97970.19;4377479;32;20459;-73
2022/01/31 00:13:05;;;;;;;4.40;1.27;;;;;;;0.90;100.00;97977.97;4442873;32;20089;-72
2022/01/31 00:15:38;;;;;;;16.70;2.47;;;;;;;0.91;100.00;97962.91;4446670;32;20137;-71
2022/01/31 00:18:06;;;;;;;9.52;1.80;;;;;;;0.96;100.00;97980.81;4443370;32;20064;-71
2022/01/31 00:20:32;;;;;;;20.45;2.83;;;;;;;0.64;100.00;97919.84;4431563;32;20126;-70
2022/01/31 00:22:59;;;;;;;6.78;0.90;;;;;;;0.87;100.00;97988.22;4430446;32;20050;-72
2022/01/31 00:25:32;;;;;;;21.27;2.28;;;;;;;0.83;100.00;97979.03;4431265;32;20050;-70
2022/01/31 00:27:58;;;;;;;4.97;1.33;;;;;;;0.81;100.00;97973.16;4428819;32;20045;-71
2022/01/31 00:30:25;;;;;;;7.90;1.95;;;;;;;0.85;100.00;97969.06;4431489;32;20051;-70
2022/01/31 00:32:51;;;;;;;18.15;2.25;;;;;;;0.58;100.00;97937.41;4431182;32;20318;-70
2022/01/31 00:35:18;;;;;;;2.90;1.50;;;;;;;0.72;100.00;97946.91;4417283;32;20081;-71
2022/01/31 00:37:45;;;;;;;8.88;1.50;;;;;;;0.74;100.00;97961.78;4416073;32;20048;-70
2022/01/31 00:40:12;;;;;;;11.05;2.30;;;;;;;0.61;100.00;97915.00;4434519;32;20160;-70
2022/01/31 00:42:39;;;;;;;10.50;1.90;;;;;;;0.48;100.00;97958.22;4445017;32;20108;-70
2022/01/31 00:45:29;;;;;;;14.93;1.65;;;;;;;0.44;100.00;97962.34;4446249;32;20398;-70
2022/01/31 00:48:05;;;;;;;7.00;1.42;;;;;;;0.57;100.00;98019.75;4442653;32;20085;-71
2022/01/31 00:50:39;;;;;;;16.00;3.30;;;;;;;0.57;100.00;97988.75;4431211;32;20060;-71
2022/01/31 00:53:07;;;;;;;26.58;4.05;;;;;;;0.62;100.00;97975.69;4429116;32;20083;-70
2022/01/31 00:55:33;;;;;;;10.70;1.80;;;;;;;0.61;100.00;97984.69;4446408;32;20362;-75
2022/01/31 00:57:59;;;;;;;12.23;3.00;;;;;;;0.43;100.00;97993.31;4445974;32;20042;-70
2022/01/31 01:00:26;;;;;;;16.02;2.15;;;;;;;0.61;100.00;97984.69;4431605;32;20037;-71
2022/01/31 01:02:53;;;;;;;17.80;2.30;;;;;;;0.56;100.00;98012.81;4446238;32;20199;-70
2022/01/31 01:05:20;;;;;;;11.88;2.10;;;;;;;0.49;100.00;97950.06;4445280;32;20362;-70
2022/01/31 01:07:47;;;;;;;20.20;2.35;;;;;;;0.58;100.00;97963.91;4430566;32;20082;-74
2022/01/31 01:10:15;;;;;;;13.75;2.15;;;;;;;0.57;100.00;97978.16;4428779;32;20348;-70
2022/01/31 01:12:42;;;;;;;16.52;3.08;;;;;;;0.39;100.00;97948.91;4431060;32;20046;-70
2022/01/31 01:15:10;;;;;;;6.65;1.42;;;;;;;0.43;100.00;98008.38;4416760;32;20033;-70
2022/01/31 01:17:37;;;;;;;1.83;1.40;;;;;;;0.53;100.00;97998.97;4416137;32;20091;-70
2022/01/31 01:20:05;;;;;;;8.32;2.45;;;;;;;0.35;100.00;97975.81;4442576;32;20034;-70
2022/01/31 01:22:32;;;;;;;14.45;3.50;;;;;;;0.44;100.00;97979.03;4442342;32;20083;-70
2022/01/31 01:25:02;;;;;;;19.70;2.25;;;;;;;0.47;100.00;97975.97;4430532;32;20041;-70
2022/01/31 01:27:36;;;;;;;13.32;2.78;;;;;;;0.02;100.00;97919.50;4409123;32;20038;-71
2022/01/31 01:30:05;;;;;;;7.72;2.20;;;;;;;0.45;100.00;97971.91;4419993;32;20352;-70
2022/01/31 01:32:39;;;;;;;14.68;2.85;;;;;;;0.42;100.00;97967.03;4432575;32;20824;-71
2022/01/31 01:35:07;;;;;;;9.32;2.17;;;;;;;0.35;100.00;97951.97;4430453;32;20048;-69
2022/01/31 01:37:34;;;;;;;8.30;1.75;;;;;;;0.05;100.00;97911.97;4445481;32;20063;-70
2022/01/31 01:40:00;;;;;;;8.82;1.55;;;;;;;0.30;100.00;97994.19;4442188;32;20382;-71
2022/01/31 01:42:27;;;;;;;5.22;1.90;;;;;;;0.23;100.00;97961.59;4431271;32;20077;-70
2022/01/31 01:44:54;;;;;;;5.70;1.70;;;;;;;0.24;100.00;97920.87;4445419;32;20437;-70
2022/01/31 01:47:23;;;;;;;10.93;2.37;;;;;;;0.22;100.00;97953.88;4442988;32;20067;-70
2022/01/31 01:49:51;;;;;;;11.07;2.08;;;;;;;0.23;100.00;97932.47;4442275;32;20041;-73
2022/01/31 01:52:19;;;;;;;10.05;1.58;;;;;;;0.11;100.00;97942.91;4432115;32;20038;-70
2022/01/31 01:54:46;;;;;;;14.05;3.95;;;;;;;-0.12;100.00;97869.28;4429752;32;20081;-70
2022/01/31 01:57:14;;;;;;;12.45;2.95;;;;;;;0.18;100.00;97953.47;4416303;32;20042;-70
2022/01/31 01:59:41;;;;;;;12.80;2.47;;;;;;;-0.49;100.00;97825.88;4434147;32;20071;-69
2022/01/31 02:02:09;;;;;;;28.38;2.83;;;;;;;-0.32;100.00;97879.09;4429871;32;20433;-73
2022/01/31 02:04:36;;;;;;;9.77;3.05;;;;;;;-0.10;100.00;97880.47;4444386;32;20055;-69
2022/01/31 02:07:03;;;;;;;6.80;1.55;;;;;;;-0.05;100.00;97916.88;4437071;32;20169;-70
2022/01/31 02:09:31;;;;;;;10.98;2.53;;;;;;;-0.08;100.00;97915.50;4366961;32;20085;-70
2022/01/31 02:11:59;;;;;;;15.48;2.33;;;;;;;-0.14;100.00;97913.66;4390019;32;20085;-70
2022/01/31 02:14:26;;;;;;;14.27;2.00;;;;;;;-0.20;100.00;97890.69;4428566;32;20059;-70
2022/01/31 02:16:55;;;;;;;13.88;2.25;;;;;;;-0.27;100.00;97908.41;4419434;32;20064;-70
2022/01/31 02:19:23;;;;;;;15.70;2.67;;;;;;;-0.20;100.00;97904.72;4430122;32;20034;-69
2022/01/31 02:21:54;;;;;;;5.57;2.15;;;;;;;-0.69;100.00;97849.69;4429651;32;20145;-69
2022/01/31 02:24:30;;;;;;;8.32;1.85;;;;;;;-0.38;100.00;97908.03;4429194;32;20057;-69
2022/01/31 02:27:02;;;;;;;10.63;1.87;;;;;;;-0.40;100.00;97920.66;4443480;32;20107;-69
2022/01/31 02:29:29;;;;;;;5.00;1.73;;;;;;;-0.43;100.00;97905.19;4431019;32;20166;-69
2022/01/31 02:31:56;;;;;;;16.25;2.78;;;;;;;-0.43;100.00;97899.06;4431855;32;20046;-73
2022/01/31 02:34:22;;;;;;;4.87;1.67;;;;;;;-0.69;100.00;97870.84;4430161;32;20042;-69
2022/01/31 02:36:49;;;;;;;17.62;2.10;;;;;;;-0.43;100.00;97883.19;4415536;32;20030;-69
2022/01/31 02:39:16;;;;;;;11.43;1.73;;;;;;;-0.76;100.00;97845.22;4402684;32;20471;-69
2022/01/31 02:41:44;;;;;;;15.05;2.83;;;;;;;-0.47;100.00;97914.53;4345728;33;20074;-69
2022/01/31 02:44:16;;;;;;;8.38;2.12;;;;;;;-0.70;100.00;97858.63;4343660;33;20044;-69
2022/01/31 02:46:53;;;;;;;14.35;1.73;;;;;;;-0.75;100.00;97868.03;4351671;33;20044;-69
2022/01/31 02:49:24;;;;;;;8.75;2.03;;;;;;;-0.66;100.00;97878.38;4340034;33;20069;-69
2022/01/31 02:51:58;;;;;;;14.38;2.70;;;;;;;-0.49;100.00;97911.31;4342953;33;20078;-71
2022/01/31 02:54:27;;;;;;;15.20;2.37;;;;;;;-0.74;100.00;97893.41;4354781;33;20373;-69
2022/01/31 02:56:54;;;;;;;26.85;3.37;;;;;;;-0.70;100.00;97882.44;4355210;33;20073;-69
2022/01/31 02:59:21;;;;;;;7.47;1.95;;;;;;;-0.68;100.00;97889.16;4354031;33;20439;-70
2022/01/31 03:01:48;;;;;;;16.27;2.62;;;;;;;-0.47;100.00;97901.31;4352349;33;20501;-74
2022/01/31 03:04:14;;;;;;;12.75;2.53;;;;;;;-0.84;100.00;97871.06;4340271;33;20089;-71
2022/01/31 03:06:47;;;;;;;5.53;2.22;;;;;;;-0.46;100.00;97904.78;4349206;33;20197;-71
2022/01/31 03:09:15;;;;;;;16.58;2.20;;;;;;;-0.87;100.00;97877.56;4352503;33;20410;-71
2022/01/31 03:11:42;;;;;;;16.30;3.17;;;;;;;-0.53;100.00;97904.78;4336339;33;20037;-72
2022/01/31 03:14:09;;;;;;;13.88;2.92;;;;;;;-0.57;100.00;97919.44;4369119;32;20879;-71
2022/01/31 03:16:44;;;;;;;10.73;1.95;;;;;;;-0.85;100.00;97883.47;4353920;33;20081;-69
2022/01/31 03:19:13;;;;;;;11.57;1.55;;;;;;;-0.76;100.00;97853.16;4354137;33;20081;-70
2022/01/31 03:21:41;;;;;;;12.27;2.40;;;;;;;-0.44;100.00;97923.91;4352823;33;20090;-70
2022/01/31 03:24:09;;;;;;;5.30;1.90;;;;;;;-0.69;100.00;97889.34;4352660;33;20079;-69
2022/01/31 03:26:37;;;;;;;20.83;2.17;;;;;;;-0.61;100.00;97920.87;4354169;33;20040;-71
2022/01/31 03:29:04;;;;;;;25.25;3.28;;;;;;;-0.49;100.00;97900.72;4354833;33;20403;-71
2022/01/31 03:31:31;;;;;;;7.93;1.83;;;;;;;-0.85;100.00;97838.53;4344784;33;20086;-71
2022/01/31 03:33:59;;;;;;;8.70;1.40;;;;;;;-0.54;100.00;97908.47;4344150;33;20408;-73
2022/01/31 03:36:25;;;;;;;17.75;3.10;;;;;;;-0.85;100.00;97843.81;4403688;32;20036;-71
2022/01/31 03:38:53;;;;;;;6.03;1.70;;;;;;;-0.70;100.00;97845.41;4411185;32;20044;-70
2022/01/31 03:41:21;;;;;;;14.45;1.95;;;;;;;-0.70;100.00;97893.00;4363601;32;20449;-70
2022/01/31 03:43:49;;;;;;;7.93;1.83;;;;;;;-0.96;100.00;97840.00;4358207;32;20119;-70
2022/01/31 03:46:16;;;;;;;15.48;2.95;;;;;;;-0.59;100.00;97871.22;4352558;33;20070;-71
2022/01/31 03:48:43;;;;;;;18.25;2.45;;;;;;;-0.59;100.00;97881.81;4353676;33;21082;-73
2022/01/31 03:51:12;;;;;;;10.27;2.10;;;;;;;-0.70;100.00;97872.69;4353237;33;20069;-72
2022/01/31 03:53:39;;;;;;;8.77;3.33;;;;;;;-0.61;100.00;97870.62;4353230;33;20122;-73
2022/01/31 03:56:06;;;;;;;10.32;1.90;;;;;;;-0.76;100.00;97868.22;4399682;32;20181;-73
2022/01/31 03:58:36;;;;;;;12.77;2.85;;;;;;;-0.78;100.00;97857.84;4348476;32;20181;-72
2022/01/31 04:01:03;;;;;;;12.95;2.53;;;;;;;-0.97;100.00;97813.78;4412471;32;20043;-73
2022/01/31 04:03:29;;;;;;;12.25;2.03;;;;;;;-1.02;100.00;97826.75;4356739;32;20065;-72
2022/01/31 04:05:55;;;;;;;10.65;2.53;;;;;;;-0.69;100.00;97874.28;4353817;32;20179;-74
2022/01/31 04:08:22;;;;;;;10.18;2.10;;;;;;;-1.52;100.00;97748.75;4420394;32;20084;-73
2022/01/31 04:10:48;;;;;;;12.18;2.22;;;;;;;-1.08;100.00;97801.97;4368151;32;20450;-72
2022/01/31 04:13:16;;;;;;;12.48;3.10;;;;;;;-1.07;100.00;97805.44;4408367;32;20490;-72
2022/01/31 04:15:43;;;;;;;8.55;2.28;;;;;;;-0.91;100.00;97818.22;4353859;33;20361;-72
2022/01/31 04:18:10;;;;;;;9.30;2.33;;;;;;;-1.00;100.00;97808.88;4351341;33;20085;-73
2022/01/31 04:20:37;;;;;;;16.85;3.12;;;;;;;-0.82;100.00;97832.84;4355752;32;20075;-73
2022/01/31 04:23:10;;;;;;;13.13;2.37;;;;;;;-1.00;100.00;97811.53;4418747;32;20414;-72
2022/01/31 04:30:54;;;;;;;17.65;3.17;;;;;;;-0.83;100.00;97836.50;4353028;33;20078;-73
2022/01/31 04:33:21;;;;;;;17.40;2.53;;;;;;;-0.80;100.00;97838.75;4403322;32;20394;-72
2022/01/31 04:35:47;;;;;;;21.65;2.12;;;;;;;-0.86;100.00;97829.00;4410665;32;20036;-73
2022/01/31 04:38:14;;;;;;;9.40;1.75;;;;;;;-0.80;100.00;97845.84;4379778;32;20964;-73
2022/01/31 04:40:41;;;;;;;21.92;3.45;;;;;;;-0.86;100.00;97844.03;4446737;32;20414;-73
2022/01/31 04:43:07;;;;;;;21.52;3.20;;;;;;;-1.34;100.00;97756.09;4446018;32;20038;-73
2022/01/31 04:45:33;;;;;;;13.05;2.42;;;;;;;-1.36;100.00;97763.38;4428661;32;20025;-73
2022/01/31 04:47:59;;;;;;;21.37;2.42;;;;;;;-0.80;100.00;97809.69;4435518;32;20042;-74
2022/01/31 04:50:32;;;;;;;12.07;3.15;;;;;;;-1.06;100.00;97764.78;4430999;32;20073;-73
2022/01/31 04:52:58;;;;;;;13.88;2.65;;;;;;;-1.03;100.00;97804.00;4429483;32;20082;-73
2022/01/31 04:55:25;;;;;;;16.58;2.72;;;;;;;-0.91;100.00;97775.94;4434294;32;20378;-72
2022/01/31 04:57:51;;;;;;;10.65;2.30;;;;;;;-0.88;100.00;97807.22;4429614;32;20050;-73
2022/01/31 05:00:18;;;;;;;13.90;1.90;;;;;;;-1.37;100.00;97698.41;4414578;32;20022;-73
2022/01/31 05:02:44;;;;;;;18.17;2.55;;;;;;;-1.21;100.00;97749.16;4442036;32;20124;-73
2022/01/31 05:05:10;;;;;;;14.87;2.22;;;;;;;-1.22;100.00;97729.84;4445491;32;20038;-72
2022/01/31 05:07:36;;;;;;;15.65;2.53;;;;;;;-0.84;100.00;97787.31;4445150;32;20379;-72
2022/01/31 05:10:03;;;;;;;12.75;2.05;;;;;;;-1.30;100.00;97711.59;4430833;32;20027;-72
2022/01/31 05:12:29;;;;;;;12.93;2.25;;;;;;;-1.20;100.00;97729.66;4426300;32;20052;-72
2022/01/31 05:14:55;;;;;;;11.98;1.92;;;;;;;-0.95;100.00;97785.31;4442140;32;20037;-72
2022/01/31 05:17:22;;;;;;;21.35;2.95;;;;;;;-0.92;100.00;97790.19;4445616;32;20052;-72
2022/01/31 05:19:49;;;;;;;11.88;2.75;;;;;;;-0.87;100.00;97765.78;4432415;32;20038;-72
2022/01/31 05:22:15;;;;;;;22.87;2.70;;;;;;;-1.03;100.00;97748.53;4444444;32;20063;-73
2022/01/31 05:24:42;;;;;;;12.95;2.05;;;;;;;-0.88;100.00;97762.28;4433553;32;20038;-72
2022/01/31 05:27:08;;;;;;;16.60;3.50;;;;;;;-0.78;100.00;97765.34;4430644;32;20382;-72
2022/01/31 05:29:34;;;;;;;8.90;2.20;;;;;;;-1.20;100.00;97698.75;4442379;32;20022;-72
2022/01/31 05:32:00;;;;;;;22.13;2.80;;;;;;;-0.81;100.00;97739.31;4430430;32;20034;-72
2022/01/31 05:34:27;;;;;;;8.93;2.25;;;;;;;-0.90;100.00;97740.56;4426643;32;20378;-73
2022/01/31 05:36:55;;;;;;;16.62;3.22;;;;;;;-1.12;100.00;97711.78;4430474;32;20467;-72
2022/01/31 05:39:28;;;;;;;26.73;3.22;;;;;;;-1.04;100.00;97702.78;4430895;32;20073;-72
2022/01/31 05:41:56;;;;;;;22.30;5.00;;;;;;;-0.78;100.00;97740.75;4440615;32;20096;-72
2022/01/31 05:44:24;;;;;;;21.15;2.47;;;;;;;-0.61;100.00;97733.16;4429260;32;20029;-74
2022/01/31 05:46:51;;;;;;;11.52;1.77;;;;;;;-0.96;100.00;97713.16;4445173;32;20100;-72
2022/01/31 05:49:17;;;;;;;13.80;2.33;;;;;;;-1.51;100.00;97607.84;4425700;32;20060;-72
2022/01/31 05:51:57;;;;;;;16.62;2.40;;;;;;;-0.97;100.00;97686.94;4442407;32;20042;-72
2022/01/31 05:54:24;;;;;;;15.73;2.80;;;;;;;-1.12;100.00;97666.88;4444234;32;20502;-72
2022/01/31 05:56:51;;;;;;;12.45;3.33;;;;;;;-0.73;100.00;97736.44;4431500;32;20343;-72
2022/01/31 05:59:17;;;;;;;12.70;2.30;;;;;;;-0.83;100.00;97719.41;4445097;32;20064;-71
2022/01/31 06:01:44;;;;;;;12.43;2.12;;;;;;;-1.15;100.00;97685.75;4443815;32;20038;-74
2022/01/31 06:04:10;;;;;;;15.88;3.28;;;;;;;-1.14;100.00;97676.81;4429382;32;20362;-73
2022/01/31 06:06:37;;;;;;;33.72;3.35;;;;;;;-1.15;100.00;97683.13;4442158;32;20034;-72
2022/01/31 06:09:04;;;;;;;15.68;2.70;;;;;;;-1.22;100.00;97679.69;4429188;32;20038;-72
2022/01/31 06:11:33;;;;;;;20.70;2.97;;;;;;;-1.16;100.00;97684.13;4418393;32;20040;-71
2022/01/31 06:14:01;;;;;;;15.30;2.83;;;;;;;-1.07;100.00;97686.53;4430130;32;20033;-71
2022/01/31 06:16:29;;;;;;;13.93;2.20;;;;;;;-0.83;100.00;97722.87;4445565;32;20157;-71
2022/01/31 06:18:56;;;;;;;14.75;3.15;;;;;;;-0.86;100.00;97731.22;4430697;32;20022;-72
2022/01/31 06:21:22;;;;;;;17.73;3.25;;;;;;;-1.21;100.00;97669.91;4425923;32;20336;-72
2022/01/31 06:23:49;;;;;;;18.65;3.10;;;;;;;-0.83;100.00;97719.41;4429548;32;20077;-72
2022/01/31 06:26:16;;;;;;;17.27;2.95;;;;;;;-0.81;100.00;97712.88;4430140;32;20034;-73
2022/01/31 06:28:45;;;;;;;7.60;2.28;;;;;;;-0.88;100.00;97727.94;4438016;32;20038;-73
2022/01/31 06:31:27;;;;;;;18.75;2.33;;;;;;;-0.76;100.00;97715.72;4432914;32;20037;-73
2022/01/31 06:33:54;;;;;;;16.37;3.08;;;;;;;-1.23;100.00;97675.41;4429748;32;20366;-74
2022/01/31 06:36:22;;;;;;;23.00;3.92;;;;;;;-1.31;100.00;97670.34;4431574;32;20847;-73
2022/01/31 06:38:50;;;;;;;18.75;3.40;;;;;;;-1.01;100.00;97702.38;4442072;32;20078;-73
2022/01/31 06:41:18;;;;;;;24.42;3.05;;;;;;;-0.94;100.00;97724.31;4448423;32;20088;-73
2022/01/31 06:43:46;;;;;;;10.68;2.47;;;;;;;-1.38;100.00;97672.19;4430730;32;20025;-74
2022/01/31 06:46:14;;;;;;;14.50;3.75;;;;;;;-1.15;100.00;97691.03;4430971;32;20052;-73
2022/01/31 06:48:41;;;;;;;11.27;2.20;;;;;;;-1.12;100.00;97684.53;4431716;32;20065;-73
2022/01/31 06:51:08;;;;;;;16.98;2.45;;;;;;;-0.84;100.00;97723.88;4431569;32;20332;-72
2022/01/31 06:53:36;;;;;;;19.30;2.85;;;;;;;-0.81;100.00;97723.47;4432320;32;20037;-72
2022/01/31 06:56:03;;;;;;;20.37;2.47;;;;;;;-0.99;100.00;97723.31;4429891;32;20033;-74
2022/01/31 06:58:30;;;;;;;13.38;2.50;;;;;;;-0.90;100.00;97703.56;4432178;32;20022;-73
2022/01/31 07:00:58;;;;;;;19.27;2.55;;;;;;;-0.94;100.00;97707.66;4420870;32;20056;-73
2022/01/31 07:03:25;;;;;;;23.70;3.08;;;;;;;-1.14;100.00;97655.66;4432370;32;20051;-73
2022/01/31 07:05:51;;;;;;;22.40;3.25;;;;;;;-0.95;100.00;97679.59;4442806;32;20044;-73
2022/01/31 07:08:18;;;;;;;19.15;4.20;;;;;;;-0.87;100.00;97708.44;4429202;32;20075;-73
2022/01/31 07:10:51;;;;;;;17.12;2.78;;;;;;;-0.99;100.00;97679.22;4433867;32;20075;-72
2022/01/31 07:15:58;;;;;;;12.07;2.67;;;;;;;-0.90;100.00;97710.69;4430378;32;20077;-73
2022/01/31 07:18:25;;;;;;;19.33;2.80;;;;;;;-0.98;100.00;97696.66;4429807;32;20478;-72
2022/01/31 07:20:53;;;;;;;14.30;2.20;;;;;;;-0.89;100.00;97710.47;4431161;32;20035;-73
2022/01/31 07:23:49;;;;;;;24.52;2.92;;;;;;;-0.86;100.00;97688.09;4430962;32;20354;-73
2022/01/31 07:26:12;;;;;;;;;;;;;;;-0.90;100.00;97671.84;4432182;32;20928;-72
2022/01/31 07:28:38;;;;;;;9.95;2.45;;;;;;;-0.73;100.00;97686.22;4436344;32;19990;-72
2022/01/31 07:31:05;;;;;;;19.15;2.62;;;;;;;-0.82;100.00;97684.81;4450010;32;20079;-72
2022/01/31 07:33:31;;;;;;;11.05;3.03;;;;;;;-0.98;100.00;97674.72;4434195;32;20055;-72
2022/01/31 07:35:58;;;;;;;16.95;3.37;;;;;;;-0.88;100.00;97696.22;4439121;32;20049;-73
2022/01/31 07:38:31;;;;;;;17.80;2.55;;;;;;;-0.78;100.00;97675.47;4418456;32;20050;-73
2022/01/31 07:40:59;;;;;;;10.93;2.75;;;;;;;-1.05;100.00;97644.88;4437228;32;20046;-72
2022/01/31 07:43:25;;;;;;;18.42;3.12;;;;;;;-0.95;100.00;97632.84;4430910;32;20043;-72
2022/01/31 07:45:52;;;;;;;11.35;2.72;;;;;;;-0.67;100.00;97674.00;4417630;32;20396;-74
2022/01/31 07:48:19;;;;;;;26.10;5.00;;;;;;;-0.89;100.00;97625.91;4418374;32;20094;-72
2022/01/31 07:50:45;;;;;;;11.88;3.03;;;;;;;-0.70;100.00;97681.53;4416907;32;20023;-72
2022/01/31 07:53:11;;;;;;;16.62;3.90;;;;;;;-0.52;100.00;97683.50;4432997;32;20363;-72
2022/01/31 07:55:38;;;;;;;21.45;3.40;;;;;;;-0.88;100.00;97626.72;4431998;32;20111;-72
2022/01/31 07:58:06;;;;;;;11.35;2.00;;;;;;;-0.89;100.00;97619.81;4429283;32;20064;-72
2022/01/31 08:00:33;;;;;;;20.58;3.08;;;;;;;-0.76;100.00;97668.13;4442686;32;20073;-74
2022/01/31 08:03:00;;;;;;;16.45;2.80;;;;;;;-0.64;100.00;97654.25;4431999;32;20037;-72
2022/01/31 08:05:26;;;;;;;20.73;3.15;;;;;;;-0.48;100.00;97659.06;4431788;32;20026;-72
2022/01/31 08:07:52;;;;;;;16.83;3.20;;;;;;;-0.53;100.00;97650.94;4417925;32;20044;-74
2022/01/31 08:10:20;;;;;;;11.55;2.15;;;;;;;-0.45;100.00;97653.31;4424731;32;20034;-72
2022/01/31 08:12:46;;;;;;;18.98;3.05;;;;;;;-0.82;100.00;97626.69;4432748;32;20079;-72
2022/01/31 08:15:21;;;;;;;15.55;3.22;;;;;;;-0.59;100.00;97662.34;4419824;32;20026;-73
2022/01/31 08:17:48;;;;;;;16.67;3.40;;;;;;;-0.50;100.00;97666.38;4431699;32;20460;-75
2022/01/31 08:20:16;;;;;;;10.25;2.50;;;;;;;-0.44;100.00;97644.38;4444600;32;20030;-73
2022/01/31 08:22:43;;;;;;;11.02;2.85;;;;;;;-0.53;100.00;97640.38;4445766;32;20407;-73
2022/01/31 08:25:14;;;;;;;24.83;3.00;;;;;;;-0.77;100.00;97602.25;4442478;32;20033;-74
2022/01/31 08:27:52;;;;;;;17.55;2.95;;;;;;;-0.78;100.00;97601.47;4433101;32;20038;-74
2022/01/31 08:30:24;;;;;;;12.25;2.58;;;;;;;-0.48;100.00;97622.03;4432033;32;20111;-72
2022/01/31 08:32:59;;;;;;;17.70;2.67;;;;;;;-0.48;100.00;97624.69;4444503;32;20042;-74
2022/01/31 08:38:12;;;;;;;21.12;2.75;;;;;;;-0.24;100.00;97614.34;4433972;32;20076;-73
2022/01/31 08:40:39;;;;;;;13.77;2.85;;;;;;;-0.57;100.00;97565.16;4439754;32;20113;-73
2022/01/31 08:43:06;;;;;;;17.65;3.50;;;;;;;-0.45;100.00;97584.56;4413647;32;20432;-73
2022/01/31 08:45:35;;;;;;;15.80;3.97;;;;;;;-0.26;100.00;97603.16;4430875;32;20047;-75
2022/01/31 08:48:05;;;;;;;13.25;3.08;;;;;;;-0.13;100.00;97611.00;4429150;32;20056;-73
2022/01/31 08:50:32;;;;;;;30.65;4.30;;;;;;;-0.26;100.00;97619.84;4429244;32;20064;-73
2022/01/31 08:52:58;;;;;;;15.43;3.20;;;;;;;-0.16;100.00;97619.38;4428200;32;20085;-74
2022/01/31 08:55:25;;;;;;;17.23;3.45;;;;;;;-0.28;100.00;97589.34;4429968;32;20042;-73
2022/01/31 08:57:55;;;;;;;11.23;2.92;;;;;;;-0.58;100.00;97579.38;4414140;32;20042;-74
2022/01/31 09:00:33;;;;;;;13.65;2.75;;;;;;;-0.11;100.00;97630.13;4430692;32;20068;-73
2022/01/31 09:05:38;;;;;;;14.48;3.35;;;;;;;-0.29;100.00;97562.06;4428080;32;20034;-71
2022/01/31 09:08:04;;;;;;;24.67;3.60;;;;;;;-0.28;100.00;97565.56;4429101;32;20037;-69
2022/01/31 09:10:32;;;;;;;22.30;5.72;;;;;;;-0.08;100.00;97611.19;4434531;32;20102;-69
2022/01/31 09:13:00;;;;;;;27.02;3.78;;;;;;;0.03;100.00;97616.78;4419240;32;20460;-70
2022/01/31 09:15:27;;;;;;;15.35;2.80;;;;;;;0.13;100.00;97617.13;4424959;32;20052;-70
2022/01/31 09:17:54;;;;;;;15.80;2.92;;;;;;;0.11;100.00;97603.28;4421454;32;20154;-70
2022/01/31 09:20:21;;;;;;;22.77;4.60;;;;;;;-0.11;100.00;97601.03;4430236;32;20046;-70
2022/01/31 09:22:47;;;;;;;30.77;4.85;;;;;;;-0.01;100.00;97611.91;4430639;32;20043;-70
2022/01/31 09:25:14;;;;;;;20.50;4.12;;;;;;;0.01;100.00;97600.31;4428724;32;20054;-72
2022/01/31 09:27:41;;;;;;;31.00;7.72;;;;;;;-0.27;100.00;97554.75;4413789;32;20052;-69
2022/01/31 09:30:10;;;;;;;36.17;8.77;;;;;;;0.04;100.00;97586.66;4430725;32;20054;-69
2022/01/31 09:32:36;;;;;;;18.98;5.40;;;;;;;0.14;100.00;97586.97;4425747;32;20042;-70
2022/01/31 09:35:03;;;;;;;24.12;4.20;;;;;;;-0.31;100.00;97542.97;4421548;32;20038;-70
2022/01/31 09:37:30;;;;;;;28.55;5.00;;;;;;;-0.38;100.00;97516.59;4429156;32;20042;-72
2022/01/31 09:40:04;;;;;;;18.20;4.22;;;;;;;0.01;100.00;97579.16;4428644;32;20422;-70
2022/01/31 09:42:40;;;;;;;13.82;3.58;;;;;;;-0.01;100.00;97574.88;4431709;32;20074;-69
2022/01/31 09:45:21;;;;;;;21.12;3.70;;;;;;;0.09;100.00;97573.56;4432946;32;20050;-69
2022/01/31 09:50:26;;;;;;;29.63;3.95;;;;;;;0.05;100.00;97535.31;4430350;32;20064;-69
2022/01/31 09:53:00;;;;;;;22.67;4.30;;;;;;;-0.12;100.00;97509.44;4434346;32;20042;-70
2022/01/31 09:55:27;;;;;;;23.80;4.18;;;;;;;0.22;100.00;97552.25;4424167;32;20363;-70
2022/01/31 09:57:54;;;;;;;15.85;3.87;;;;;;;0.23;100.00;97553.87;4424195;32;20053;-70
2022/01/31 10:00:31;;;;;;;20.42;3.55;;;;;;;-0.06;100.00;97482.09;4425794;32;20054;-69
2022/01/31 10:03:09;;;;;;;14.02;3.28;;;;;;;-0.04;100.00;97480.03;4428670;32;20444;-71
2022/01/31 10:05:37;;;;;;;16.30;3.03;;;;;;;0.28;100.00;97538.16;4434036;32;20072;-71
2022/01/31 10:08:13;;;;;;;17.67;3.25;;;;;;;0.21;100.00;97528.66;4429389;32;20034;-70
2022/01/31 10:10:44;;;;;;;7.87;2.78;;;;;;;0.37;100.00;97530.75;4435917;32;20056;-69
2022/01/31 10:16:29;;;;;;;22.55;3.40;;;;;;;-0.01;100.00;97479.59;4434136;32;20050;-69
2022/01/31 10:18:59;;;;;;;18.75;3.53;;;;;;;0.00;100.00;97483.09;4431860;32;20856;-69
2022/01/31 10:21:26;;;;;;;15.20;4.00;;;;;;;0.00;100.00;97464.56;4432412;32;20397;-68
2022/01/31 10:23:53;;;;;;;18.60;3.40;;;;;;;0.25;100.00;97509.47;4432302;32;20100;-69
2022/01/31 10:26:30;;;;;;;13.60;2.92;;;;;;;0.29;100.00;97531.84;4443210;32;20111;-69
2022/01/31 10:29:14;;;;;;;23.00;4.20;;;;;;;0.04;100.00;97464.91;4432883;32;20076;-71
2022/01/31 10:32:10;;;;;;;28.77;4.07;;;;;;;0.14;100.00;97470.50;4435300;32;20072;-69
2022/01/31 10:34:51;;;;;;;19.20;3.67;;;;;;;0.44;100.00;97502.31;4435247;32;20093;-69
2022/01/31 10:37:22;;;;;;;20.25;3.80;;;;;;;0.36;100.00;97503.44;4431503;32;20068;-72
2022/01/31 10:52:01;;;;;;;25.83;3.55;;;;;;;0.50;100.00;97500.66;4438191;32;20074;-68
2022/01/31 10:57:17;;;;;;;18.60;3.25;;;;;;;0.41;100.00;97492.19;4405429;32;20449;-68
2022/01/31 10:59:51;;;;;;;13.75;4.10;;;;;;;0.38;100.00;97486.53;4397471;32;20030;-69
2022/01/31 11:02:22;;;;;;;16.05;3.12;;;;;;;0.39;100.00;97472.25;4409281;32;20118;-70
2022/01/31 11:04:52;;;;;;;18.70;2.78;;;;;;;0.32;100.00;97462.56;4396796;32;20074;-70
2022/01/31 11:07:25;;;;;;;12.13;2.47;;;;;;;0.43;100.00;97489.31;4401771;32;20046;-72
2022/01/31 11:09:56;;;;;;;11.00;2.85;;;;;;;0.11;100.00;97423.28;4393948;32;20084;-69
2022/01/31 11:12:28;;;;;;;25.37;3.92;;;;;;;0.66;100.00;97500.03;4406188;32;20430;-68
2022/01/31 11:15:03;;;;;;;17.52;4.32;;;;;;;0.52;100.00;97464.16;4406386;32;20330;-69
2022/01/31 11:17:35;;;;;;;16.55;3.30;;;;;;;0.65;100.00;97493.09;4409163;32;20158;-70
2022/01/31 11:20:06;;;;;;;25.25;3.92;;;;;;;0.61;100.00;97481.34;4395276;32;20171;-70
2022/01/31 11:22:37;;;;;;;11.30;3.12;;;;;;;0.66;100.00;97473.53;4408900;32;20039;-72
2022/01/31 11:25:15;;;;;;;19.73;3.10;;;;;;;0.36;100.00;97437.22;4407476;32;20046;-69
2022/01/31 11:27:45;;;;;;;14.45;3.47;;;;;;;0.57;100.00;97468.78;4416157;32;20054;-69
2022/01/31 11:30:16;;;;;;;15.73;2.80;;;;;;;0.76;100.00;97494.19;4433178;32;20049;-69
2022/01/31 11:32:48;;;;;;;23.58;3.75;;;;;;;0.73;100.00;97481.38;4431421;32;20060;-69
2022/01/31 11:35:18;;;;;;;20.08;3.95;;;;;;;0.79;100.00;97469.09;4423956;32;20062;-69
2022/01/31 11:37:45;;;;;;;16.30;3.30;;;;;;;0.58;100.00;97433.31;4433912;32;20081;-70
2022/01/31 11:40:17;;;;;;;14.30;2.75;;;;;;;0.92;100.00;97471.56;4393361;32;20457;-73
2022/01/31 11:42:48;;;;;;;23.10;4.15;;;;;;;0.88;100.00;97454.50;4397546;32;20035;-69
2022/01/31 11:45:21;;;;;;;19.90;2.78;;;;;;;0.91;100.00;97475.25;4387219;32;20373;-69
2022/01/31 11:47:54;;;;;;;25.20;4.05;;;;;;;0.97;100.00;97469.03;4364088;32;20053;-68
2022/01/31 11:50:23;;;;;;;11.63;2.65;;;;;;;0.99;100.00;97477.59;4411600;32;20058;-69
2022/01/31 11:52:57;;;;;;;27.02;6.10;;;;;;;0.77;100.00;97431.44;4359743;32;20078;-69
2022/01/31 11:55:35;;;;;;;11.73;3.00;;;;;;;1.08;100.00;97481.50;4390099;32;20044;-69
2022/01/31 11:58:07;;;;;;;37.50;6.68;;;;;;;1.02;100.00;97487.75;4358953;32;20077;-69
2022/01/31 12:00:40;;;;;;;41.28;8.15;;;;;;;1.06;100.00;97472.97;4360672;32;20072;-69
2022/01/31 12:03:13;;;;;;;16.20;4.80;;;;;;;0.46;100.00;97393.53;4397412;32;20095;-69